sensor_id;sensor_type;location;lat;lon;timestamp;temperature;humidity
4908;DHT22;64375;51.540;7.364;2022-10-16T00:00:58;17.50;99.90
4908;DHT22;64375;51.540;7.364;2022-10-16T00:03:27;17.40;99.80
4908;DHT22;64375;51.540;7.364;2022-10-16T00:05:59;17.40;99.90
4908;DHT22;64375;51.540;7.364;2022-10-16T00:08:28;17.40;99.90
4908;DHT22;64375;51.540;7.364;2022-10-16T00:11:00;17.20;99.40
4908;DHT22;64375;51.540;7.364;2022-10-16T00:13:28;17.10;99.70
4908;DHT22;64375;51.540;7.364;2022-10-16T00:15:57;16.90;99.90
4908;DHT22;64375;51.540;7.364;2022-10-16T00:18:27;16.80;99.90
4908;DHT22;64375;51.540;7.364;2022-10-16T00:21:00;16.80;99.90
4908;DHT22;64375;51.540;7.364;2022-10-16T00:23:28;16.80;99.90
4908;DHT22;64375;51.540;7.364;2022-10-16T00:25:57;16.70;99.90
4908;DHT22;64375;51.540;7.364;2022-10-16T00:28:26;16.70;99.90
4908;DHT22;64375;51.540;7.364;2022-10-16T00:30:54;16.70;99.90
4908;DHT22;64375;51.540;7.364;2022-10-16T00:33:23;16.60;99.90
4908;DHT22;64375;51.540;7.364;2022-10-16T00:35:52;16.60;99.90
4908;DHT22;64375;51.540;7.364;2022-10-16T00:38:20;16.70;99.90
4908;DHT22;64375;51.540;7.364;2022-10-16T00:40:48;16.70;99.90
4908;DHT22;64375;51.540;7.364;2022-10-16T00:43:37;16.70;99.90
4908;DHT22;64375;51.540;7.364;2022-10-16T00:46:13;16.60;99.90
4908;DHT22;64375;51.540;7.364;2022-10-16T00:48:46;16.50;99.90
4908;DHT22;64375;51.540;7.364;2022-10-16T00:51:19;16.70;99.90
4908;DHT22;64375;51.540;7.364;2022-10-16T00:53:49;16.70;99.90
4908;DHT22;64375;51.540;7.364;2022-10-16T00:56:18;16.80;99.90
4908;DHT22;64375;51.540;7.364;2022-10-16T00:58:46;16.80;99.90
4908;DHT22;64375;51.540;7.364;2022-10-16T01:01:14;16.70;99.90
4908;DHT22;64375;51.540;7.364;2022-10-16T01:03:42;16.70;99.90
4908;DHT22;64375;51.540;7.364;2022-10-16T01:06:23;16.70;99.90
4908;DHT22;64375;51.540;7.364;2022-10-16T01:09:05;16.70;99.90
4908;DHT22;64375;51.540;7.364;2022-10-16T01:11:41;16.50;99.90
4908;DHT22;64375;51.540;7.364;2022-10-16T01:14:19;16.40;99.90
4908;DHT22;64375;51.540;7.364;2022-10-16T01:16:52;16.30;99.90
4908;DHT22;64375;51.540;7.364;2022-10-16T01:19:33;16.30;99.90
4908;DHT22;64375;51.540;7.364;2022-10-16T01:22:07;16.20;99.90
4908;DHT22;64375;51.540;7.364;2022-10-16T01:24:39;16.30;99.90
4908;DHT22;64375;51.540;7.364;2022-10-16T01:27:11;16.30;99.90
4908;DHT22;64375;51.540;7.364;2022-10-16T01:29:45;16.20;99.90
4908;DHT22;64375;51.540;7.364;2022-10-16T01:32:22;16.20;99.90
4908;DHT22;64375;51.540;7.364;2022-10-16T01:34:55;16.00;99.90
4908;DHT22;64375;51.540;7.364;2022-10-16T01:37:32;15.90;99.90
4908;DHT22;64375;51.540;7.364;2022-10-16T01:40:04;15.90;99.90
4908;DHT22;64375;51.540;7.364;2022-10-16T01:42:37;15.90;99.90
4908;DHT22;64375;51.540;7.364;2022-10-16T01:45:07;15.80;99.90
4908;DHT22;64375;51.540;7.364;2022-10-16T01:47:37;15.70;99.90
4908;DHT22;64375;51.540;7.364;2022-10-16T01:50:08;15.50;99.90
4908;DHT22;64375;51.540;7.364;2022-10-16T01:52:39;15.40;99.90
4908;DHT22;64375;51.540;7.364;2022-10-16T01:55:10;15.30;99.90
4908;DHT22;64375;51.540;7.364;2022-10-16T01:57:43;15.40;99.90
4908;DHT22;64375;51.540;7.364;2022-10-16T02:00:13;15.50;99.90
4908;DHT22;64375;51.540;7.364;2022-10-16T02:02:47;15.60;99.90
4908;DHT22;64375;51.540;7.364;2022-10-16T02:05:20;15.70;99.90
4908;DHT22;64375;51.540;7.364;2022-10-16T02:07:48;15.80;99.90
4908;DHT22;64375;51.540;7.364;2022-10-16T02:10:17;15.80;99.90
4908;DHT22;64375;51.540;7.364;2022-10-16T02:12:50;15.80;99.90
4908;DHT22;64375;51.540;7.364;2022-10-16T02:15:21;15.60;99.90
4908;DHT22;64375;51.540;7.364;2022-10-16T02:17:49;15.70;99.90
4908;DHT22;64375;51.540;7.364;2022-10-16T02:20:18;15.70;99.90
4908;DHT22;64375;51.540;7.364;2022-10-16T02:22:50;15.80;99.90
4908;DHT22;64375;51.540;7.364;2022-10-16T02:25:23;15.90;99.90
4908;DHT22;64375;51.540;7.364;2022-10-16T02:27:57;16.00;99.90
4908;DHT22;64375;51.540;7.364;2022-10-16T02:30:30;16.00;99.90
4908;DHT22;64375;51.540;7.364;2022-10-16T02:33:00;16.00;99.90
4908;DHT22;64375;51.540;7.364;2022-10-16T02:35:30;16.10;99.90
4908;DHT22;64375;51.540;7.364;2022-10-16T02:37:59;16.10;99.90
4908;DHT22;64375;51.540;7.364;2022-10-16T02:40:27;16.20;99.90
4908;DHT22;64375;51.540;7.364;2022-10-16T02:42:57;16.20;99.90
4908;DHT22;64375;51.540;7.364;2022-10-16T02:45:25;16.40;99.90
4908;DHT22;64375;51.540;7.364;2022-10-16T02:47:53;16.30;99.90
4908;DHT22;64375;51.540;7.364;2022-10-16T02:50:21;16.30;99.90
4908;DHT22;64375;51.540;7.364;2022-10-16T02:52:49;16.30;99.90
4908;DHT22;64375;51.540;7.364;2022-10-16T02:55:17;16.20;99.90
4908;DHT22;64375;51.540;7.364;2022-10-16T02:57:45;16.20;99.90
4908;DHT22;64375;51.540;7.364;2022-10-16T03:00:16;16.20;99.90
4908;DHT22;64375;51.540;7.364;2022-10-16T03:02:45;15.90;99.90
4908;DHT22;64375;51.540;7.364;2022-10-16T03:05:13;15.90;99.90
4908;DHT22;64375;51.540;7.364;2022-10-16T03:07:42;15.80;99.90
4908;DHT22;64375;51.540;7.364;2022-10-16T03:10:10;15.90;99.90
4908;DHT22;64375;51.540;7.364;2022-10-16T03:12:37;16.00;99.90
4908;DHT22;64375;51.540;7.364;2022-10-16T03:15:06;16.00;99.90
4908;DHT22;64375;51.540;7.364;2022-10-16T03:17:36;16.10;99.90
4908;DHT22;64375;51.540;7.364;2022-10-16T03:20:05;16.10;99.90
4908;DHT22;64375;51.540;7.364;2022-10-16T03:22:33;16.10;99.90
4908;DHT22;64375;51.540;7.364;2022-10-16T03:25:00;16.10;99.90
4908;DHT22;64375;51.540;7.364;2022-10-16T03:27:28;16.10;99.90
4908;DHT22;64375;51.540;7.364;2022-10-16T03:29:56;16.10;99.90
4908;DHT22;64375;51.540;7.364;2022-10-16T03:32:24;16.10;99.90
4908;DHT22;64375;51.540;7.364;2022-10-16T03:34:54;16.10;99.90
4908;DHT22;64375;51.540;7.364;2022-10-16T03:37:23;16.00;99.90
4908;DHT22;64375;51.540;7.364;2022-10-16T03:39:51;15.90;99.90
4908;DHT22;64375;51.540;7.364;2022-10-16T03:42:19;15.90;99.90
4908;DHT22;64375;51.540;7.364;2022-10-16T03:44:47;15.90;99.90
4908;DHT22;64375;51.540;7.364;2022-10-16T03:47:15;16.00;99.90
4908;DHT22;64375;51.540;7.364;2022-10-16T03:49:47;15.90;99.90
4908;DHT22;64375;51.540;7.364;2022-10-16T03:52:17;15.90;99.90
4908;DHT22;64375;51.540;7.364;2022-10-16T03:54:49;15.90;99.90
4908;DHT22;64375;51.540;7.364;2022-10-16T03:57:17;16.00;99.90
4908;DHT22;64375;51.540;7.364;2022-10-16T03:59:47;16.00;99.90
4908;DHT22;64375;51.540;7.364;2022-10-16T04:02:15;15.90;99.90
4908;DHT22;64375;51.540;7.364;2022-10-16T04:04:42;15.80;99.90
4908;DHT22;64375;51.540;7.364;2022-10-16T04:07:10;15.70;99.90
4908;DHT22;64375;51.540;7.364;2022-10-16T04:09:40;15.70;99.90
4908;DHT22;64375;51.540;7.364;2022-10-16T04:12:08;15.80;99.90
4908;DHT22;64375;51.540;7.364;2022-10-16T04:14:36;15.80;99.90
4908;DHT22;64375;51.540;7.364;2022-10-16T04:17:04;15.90;99.90
4908;DHT22;64375;51.540;7.364;2022-10-16T04:19:32;16.10;99.90
4908;DHT22;64375;51.540;7.364;2022-10-16T04:21:59;16.40;99.90
4908;DHT22;64375;51.540;7.364;2022-10-16T04:24:27;16.40;99.90
4908;DHT22;64375;51.540;7.364;2022-10-16T04:26:57;16.30;99.90
4908;DHT22;64375;51.540;7.364;2022-10-16T04:29:25;16.40;99.90
4908;DHT22;64375;51.540;7.364;2022-10-16T04:31:52;16.40;99.90
4908;DHT22;64375;51.540;7.364;2022-10-16T04:34:20;16.50;99.90
4908;DHT22;64375;51.540;7.364;2022-10-16T04:36:48;16.30;99.90
4908;DHT22;64375;51.540;7.364;2022-10-16T04:39:16;16.40;99.90
4908;DHT22;64375;51.540;7.364;2022-10-16T04:41:44;16.40;99.90
4908;DHT22;64375;51.540;7.364;2022-10-16T04:44:13;16.60;99.90
4908;DHT22;64375;51.540;7.364;2022-10-16T04:46:41;16.80;99.90
4908;DHT22;64375;51.540;7.364;2022-10-16T04:49:10;17.00;99.90
4908;DHT22;64375;51.540;7.364;2022-10-16T04:51:38;17.20;99.90
4908;DHT22;64375;51.540;7.364;2022-10-16T04:54:06;17.30;99.90
4908;DHT22;64375;51.540;7.364;2022-10-16T04:56:34;17.40;99.90
4908;DHT22;64375;51.540;7.364;2022-10-16T04:59:09;17.50;99.90
4908;DHT22;64375;51.540;7.364;2022-10-16T05:01:38;17.60;99.90
4908;DHT22;64375;51.540;7.364;2022-10-16T05:04:06;17.50;99.90
4908;DHT22;64375;51.540;7.364;2022-10-16T05:06:34;17.50;99.90
4908;DHT22;64375;51.540;7.364;2022-10-16T05:09:02;17.60;99.90
4908;DHT22;64375;51.540;7.364;2022-10-16T05:11:31;17.60;99.90
4908;DHT22;64375;51.540;7.364;2022-10-16T05:13:59;17.80;99.90
4908;DHT22;64375;51.540;7.364;2022-10-16T05:16:27;17.80;99.90
4908;DHT22;64375;51.540;7.364;2022-10-16T05:18:56;17.90;99.90
4908;DHT22;64375;51.540;7.364;2022-10-16T05:21:44;18.10;99.90
4908;DHT22;64375;51.540;7.364;2022-10-16T05:24:12;18.20;99.90
4908;DHT22;64375;51.540;7.364;2022-10-16T05:26:40;18.30;99.90
4908;DHT22;64375;51.540;7.364;2022-10-16T05:29:09;18.10;99.90
4908;DHT22;64375;51.540;7.364;2022-10-16T05:31:37;18.00;99.90
4908;DHT22;64375;51.540;7.364;2022-10-16T05:34:06;17.90;99.90
4908;DHT22;64375;51.540;7.364;2022-10-16T05:36:34;17.90;99.90
4908;DHT22;64375;51.540;7.364;2022-10-16T05:39:03;17.90;99.90
4908;DHT22;64375;51.540;7.364;2022-10-16T05:41:30;17.90;99.90
4908;DHT22;64375;51.540;7.364;2022-10-16T05:43:58;17.90;99.90
4908;DHT22;64375;51.540;7.364;2022-10-16T05:46:26;18.00;99.90
4908;DHT22;64375;51.540;7.364;2022-10-16T05:48:54;18.10;99.90
4908;DHT22;64375;51.540;7.364;2022-10-16T05:51:23;18.10;99.90
4908;DHT22;64375;51.540;7.364;2022-10-16T05:53:52;18.10;99.90
4908;DHT22;64375;51.540;7.364;2022-10-16T05:56:20;18.20;99.90
4908;DHT22;64375;51.540;7.364;2022-10-16T05:58:47;18.10;99.90
4908;DHT22;64375;51.540;7.364;2022-10-16T06:01:17;18.10;99.90
4908;DHT22;64375;51.540;7.364;2022-10-16T06:03:45;18.20;99.90
4908;DHT22;64375;51.540;7.364;2022-10-16T06:06:14;18.30;99.90
4908;DHT22;64375;51.540;7.364;2022-10-16T06:08:45;18.40;99.90
4908;DHT22;64375;51.540;7.364;2022-10-16T06:11:15;18.50;99.30
4908;DHT22;64375;51.540;7.364;2022-10-16T06:13:44;18.40;99.00
4908;DHT22;64375;51.540;7.364;2022-10-16T06:16:13;18.30;99.40
4908;DHT22;64375;51.540;7.364;2022-10-16T06:18:41;18.20;99.50
4908;DHT22;64375;51.540;7.364;2022-10-16T06:21:10;18.30;99.50
4908;DHT22;64375;51.540;7.364;2022-10-16T06:23:38;18.40;99.30
4908;DHT22;64375;51.540;7.364;2022-10-16T06:26:08;18.50;99.10
4908;DHT22;64375;51.540;7.364;2022-10-16T06:28:37;18.30;99.20
4908;DHT22;64375;51.540;7.364;2022-10-16T06:31:07;18.40;99.20
4908;DHT22;64375;51.540;7.364;2022-10-16T06:33:36;18.40;99.00
4908;DHT22;64375;51.540;7.364;2022-10-16T06:36:06;18.30;99.20
4908;DHT22;64375;51.540;7.364;2022-10-16T06:38:35;18.40;99.10
4908;DHT22;64375;51.540;7.364;2022-10-16T06:41:04;18.30;99.10
4908;DHT22;64375;51.540;7.364;2022-10-16T06:43:33;18.20;99.20
4908;DHT22;64375;51.540;7.364;2022-10-16T06:46:03;18.20;99.70
4908;DHT22;64375;51.540;7.364;2022-10-16T06:48:32;18.30;99.90
4908;DHT22;64375;51.540;7.364;2022-10-16T06:51:01;18.30;99.90
4908;DHT22;64375;51.540;7.364;2022-10-16T06:53:35;18.20;99.90
4908;DHT22;64375;51.540;7.364;2022-10-16T06:56:11;18.20;99.90
4908;DHT22;64375;51.540;7.364;2022-10-16T06:58:41;18.10;99.90
4908;DHT22;64375;51.540;7.364;2022-10-16T07:01:10;18.00;99.90
4908;DHT22;64375;51.540;7.364;2022-10-16T07:03:40;17.90;99.90
4908;DHT22;64375;51.540;7.364;2022-10-16T07:06:09;17.90;99.80
4908;DHT22;64375;51.540;7.364;2022-10-16T07:08:39;17.80;99.90
4908;DHT22;64375;51.540;7.364;2022-10-16T07:11:08;17.80;99.90
4908;DHT22;64375;51.540;7.364;2022-10-16T07:13:39;18.00;99.90
4908;DHT22;64375;51.540;7.364;2022-10-16T07:16:10;18.30;99.80
4908;DHT22;64375;51.540;7.364;2022-10-16T07:18:38;18.50;99.30
4908;DHT22;64375;51.540;7.364;2022-10-16T07:21:08;18.60;98.70
4908;DHT22;64375;51.540;7.364;2022-10-16T07:23:36;18.60;98.60
4908;DHT22;64375;51.540;7.364;2022-10-16T07:26:05;18.50;98.10
4908;DHT22;64375;51.540;7.364;2022-10-16T07:28:33;18.40;98.10
4908;DHT22;64375;51.540;7.364;2022-10-16T07:31:03;18.30;97.80
4908;DHT22;64375;51.540;7.364;2022-10-16T07:33:31;18.30;98.20
4908;DHT22;64375;51.540;7.364;2022-10-16T07:36:00;18.20;98.10
4908;DHT22;64375;51.540;7.364;2022-10-16T07:38:28;18.20;98.10
4908;DHT22;64375;51.540;7.364;2022-10-16T07:40:56;18.10;98.10
4908;DHT22;64375;51.540;7.364;2022-10-16T07:43:25;18.10;98.20
4908;DHT22;64375;51.540;7.364;2022-10-16T07:45:53;18.00;98.30
4908;DHT22;64375;51.540;7.364;2022-10-16T07:48:27;18.00;98.50
4908;DHT22;64375;51.540;7.364;2022-10-16T07:50:57;18.00;99.20
4908;DHT22;64375;51.540;7.364;2022-10-16T07:53:26;17.90;99.20
4908;DHT22;64375;51.540;7.364;2022-10-16T07:55:57;18.00;99.10
4908;DHT22;64375;51.540;7.364;2022-10-16T07:58:26;17.90;98.90
4908;DHT22;64375;51.540;7.364;2022-10-16T08:00:54;18.00;99.30
4908;DHT22;64375;51.540;7.364;2022-10-16T08:03:22;18.00;99.60
4908;DHT22;64375;51.540;7.364;2022-10-16T08:05:52;18.00;99.40
4908;DHT22;64375;51.540;7.364;2022-10-16T08:08:20;18.00;99.40
4908;DHT22;64375;51.540;7.364;2022-10-16T08:10:47;18.00;99.40
4908;DHT22;64375;51.540;7.364;2022-10-16T08:13:16;18.00;99.50
4908;DHT22;64375;51.540;7.364;2022-10-16T08:15:45;18.00;99.50
4908;DHT22;64375;51.540;7.364;2022-10-16T08:18:14;18.00;99.50
4908;DHT22;64375;51.540;7.364;2022-10-16T08:20:43;18.00;99.60
4908;DHT22;64375;51.540;7.364;2022-10-16T08:23:12;18.00;99.90
4908;DHT22;64375;51.540;7.364;2022-10-16T08:25:41;18.10;99.90
4908;DHT22;64375;51.540;7.364;2022-10-16T08:28:10;18.10;99.70
4908;DHT22;64375;51.540;7.364;2022-10-16T08:30:38;18.10;99.70
4908;DHT22;64375;51.540;7.364;2022-10-16T08:33:06;18.20;99.70
4908;DHT22;64375;51.540;7.364;2022-10-16T08:35:34;18.10;99.70
4908;DHT22;64375;51.540;7.364;2022-10-16T08:38:03;18.10;99.60
4908;DHT22;64375;51.540;7.364;2022-10-16T08:40:34;18.10;99.90
4908;DHT22;64375;51.540;7.364;2022-10-16T08:43:17;18.20;99.60
4908;DHT22;64375;51.540;7.364;2022-10-16T08:46:05;18.20;99.40
4908;DHT22;64375;51.540;7.364;2022-10-16T08:48:42;18.20;99.00
4908;DHT22;64375;51.540;7.364;2022-10-16T08:51:14;18.10;99.00
4908;DHT22;64375;51.540;7.364;2022-10-16T08:53:46;18.10;99.00
4908;DHT22;64375;51.540;7.364;2022-10-16T08:56:18;18.10;98.70
4908;DHT22;64375;51.540;7.364;2022-10-16T08:58:47;18.20;98.60
4908;DHT22;64375;51.540;7.364;2022-10-16T09:01:17;18.20;98.40
4908;DHT22;64375;51.540;7.364;2022-10-16T09:04:04;18.20;98.20
4908;DHT22;64375;51.540;7.364;2022-10-16T09:06:42;18.30;98.20
4908;DHT22;64375;51.540;7.364;2022-10-16T09:09:26;18.30;97.70
4908;DHT22;64375;51.540;7.364;2022-10-16T09:12:01;18.30;97.60
4908;DHT22;64375;51.540;7.364;2022-10-16T09:15:02;18.40;97.50
4908;DHT22;64375;51.540;7.364;2022-10-16T09:17:41;18.40;97.60
4908;DHT22;64375;51.540;7.364;2022-10-16T09:20:30;18.40;97.40
4908;DHT22;64375;51.540;7.364;2022-10-16T09:23:14;18.50;97.30
4908;DHT22;64375;51.540;7.364;2022-10-16T09:25:46;18.60;97.10
4908;DHT22;64375;51.540;7.364;2022-10-16T09:28:17;18.60;96.80
4908;DHT22;64375;51.540;7.364;2022-10-16T09:30:46;18.50;96.70
4908;DHT22;64375;51.540;7.364;2022-10-16T09:33:17;18.50;96.70
4908;DHT22;64375;51.540;7.364;2022-10-16T09:35:49;18.60;96.80
4908;DHT22;64375;51.540;7.364;2022-10-16T09:38:24;18.60;96.90
4908;DHT22;64375;51.540;7.364;2022-10-16T09:40:52;18.70;97.00
4908;DHT22;64375;51.540;7.364;2022-10-16T09:43:34;18.70;96.90
4908;DHT22;64375;51.540;7.364;2022-10-16T09:46:05;18.70;96.80
4908;DHT22;64375;51.540;7.364;2022-10-16T09:48:37;18.70;96.90
4908;DHT22;64375;51.540;7.364;2022-10-16T09:51:13;18.80;96.80
4908;DHT22;64375;51.540;7.364;2022-10-16T09:53:45;18.80;96.60
4908;DHT22;64375;51.540;7.364;2022-10-16T09:56:22;18.80;96.70
4908;DHT22;64375;51.540;7.364;2022-10-16T09:58:53;18.90;97.20
4908;DHT22;64375;51.540;7.364;2022-10-16T10:01:24;19.10;97.40
4908;DHT22;64375;51.540;7.364;2022-10-16T10:03:56;19.30;97.60
4908;DHT22;64375;51.540;7.364;2022-10-16T10:06:29;19.40;97.90
4908;DHT22;64375;51.540;7.364;2022-10-16T10:09:02;19.60;96.90
4908;DHT22;64375;51.540;7.364;2022-10-16T10:11:45;19.80;96.20
4908;DHT22;64375;51.540;7.364;2022-10-16T10:14:31;19.80;95.90
4908;DHT22;64375;51.540;7.364;2022-10-16T10:17:15;19.90;95.50
4908;DHT22;64375;51.540;7.364;2022-10-16T10:19:47;19.90;95.00
4908;DHT22;64375;51.540;7.364;2022-10-16T10:22:39;19.90;95.10
4908;DHT22;64375;51.540;7.364;2022-10-16T10:28:37;20.00;95.00
4908;DHT22;64375;51.540;7.364;2022-10-16T10:31:16;20.10;94.80
4908;DHT22;64375;51.540;7.364;2022-10-16T10:33:49;20.10;94.50
4908;DHT22;64375;51.540;7.364;2022-10-16T10:36:28;20.20;94.50
4908;DHT22;64375;51.540;7.364;2022-10-16T10:38:59;20.20;94.20
4908;DHT22;64375;51.540;7.364;2022-10-16T10:41:52;20.20;94.80
4908;DHT22;64375;51.540;7.364;2022-10-16T10:44:29;20.30;94.70
4908;DHT22;64375;51.540;7.364;2022-10-16T10:47:09;20.30;94.50
4908;DHT22;64375;51.540;7.364;2022-10-16T10:49:48;20.30;94.30
4908;DHT22;64375;51.540;7.364;2022-10-16T10:52:34;20.30;94.50
4908;DHT22;64375;51.540;7.364;2022-10-16T10:55:13;20.30;94.40
4908;DHT22;64375;51.540;7.364;2022-10-16T10:57:54;20.40;94.30
4908;DHT22;64375;51.540;7.364;2022-10-16T11:00:40;20.50;94.00
4908;DHT22;64375;51.540;7.364;2022-10-16T11:03:25;20.50;94.20
4908;DHT22;64375;51.540;7.364;2022-10-16T11:05:56;20.50;94.10
4908;DHT22;64375;51.540;7.364;2022-10-16T11:08:31;20.60;94.40
4908;DHT22;64375;51.540;7.364;2022-10-16T11:11:03;20.60;94.00
4908;DHT22;64375;51.540;7.364;2022-10-16T11:13:35;20.50;93.90
4908;DHT22;64375;51.540;7.364;2022-10-16T11:16:13;20.60;93.80
4908;DHT22;64375;51.540;7.364;2022-10-16T11:18:54;20.60;93.80
4908;DHT22;64375;51.540;7.364;2022-10-16T11:21:23;20.60;93.60
4908;DHT22;64375;51.540;7.364;2022-10-16T11:24:00;20.60;93.50
4908;DHT22;64375;51.540;7.364;2022-10-16T11:26:34;20.50;93.20
4908;DHT22;64375;51.540;7.364;2022-10-16T11:29:05;20.50;93.30
4908;DHT22;64375;51.540;7.364;2022-10-16T11:31:40;20.40;93.10
4908;DHT22;64375;51.540;7.364;2022-10-16T11:34:15;20.40;93.20
4908;DHT22;64375;51.540;7.364;2022-10-16T11:36:48;20.60;93.20
4908;DHT22;64375;51.540;7.364;2022-10-16T11:39:21;20.60;93.30
4908;DHT22;64375;51.540;7.364;2022-10-16T11:41:52;20.70;93.50
4908;DHT22;64375;51.540;7.364;2022-10-16T11:44:38;20.80;93.50
4908;DHT22;64375;51.540;7.364;2022-10-16T11:47:21;20.90;93.40
4908;DHT22;64375;51.540;7.364;2022-10-16T11:50:17;20.80;93.00
4908;DHT22;64375;51.540;7.364;2022-10-16T11:52:53;20.90;92.90
4908;DHT22;64375;51.540;7.364;2022-10-16T11:55:26;20.80;92.50
4908;DHT22;64375;51.540;7.364;2022-10-16T11:58:00;20.90;92.80
4908;DHT22;64375;51.540;7.364;2022-10-16T12:00:33;20.90;92.80
4908;DHT22;64375;51.540;7.364;2022-10-16T12:03:08;21.10;93.00
4908;DHT22;64375;51.540;7.364;2022-10-16T12:05:52;21.10;92.80
4908;DHT22;64375;51.540;7.364;2022-10-16T12:08:23;21.10;92.40
4908;DHT22;64375;51.540;7.364;2022-10-16T12:10:51;21.20;92.20
4908;DHT22;64375;51.540;7.364;2022-10-16T12:13:30;21.20;92.10
4908;DHT22;64375;51.540;7.364;2022-10-16T12:16:22;21.30;92.10
4908;DHT22;64375;51.540;7.364;2022-10-16T12:19:03;21.30;91.90
4908;DHT22;64375;51.540;7.364;2022-10-16T12:21:39;21.40;91.70
4908;DHT22;64375;51.540;7.364;2022-10-16T12:24:21;21.30;91.60
4908;DHT22;64375;51.540;7.364;2022-10-16T12:26:51;21.40;91.80
4908;DHT22;64375;51.540;7.364;2022-10-16T12:29:28;21.50;91.80
4908;DHT22;64375;51.540;7.364;2022-10-16T12:31:57;21.60;91.40
4908;DHT22;64375;51.540;7.364;2022-10-16T12:34:28;21.60;91.30
4908;DHT22;64375;51.540;7.364;2022-10-16T12:37:10;21.70;91.30
4908;DHT22;64375;51.540;7.364;2022-10-16T12:39:39;21.70;91.20
4908;DHT22;64375;51.540;7.364;2022-10-16T12:42:21;21.80;90.80
4908;DHT22;64375;51.540;7.364;2022-10-16T12:44:50;21.70;90.80
4908;DHT22;64375;51.540;7.364;2022-10-16T12:47:23;21.70;90.50
4908;DHT22;64375;51.540;7.364;2022-10-16T12:49:53;21.60;90.60
4908;DHT22;64375;51.540;7.364;2022-10-16T12:52:35;21.50;90.20
4908;DHT22;64375;51.540;7.364;2022-10-16T12:55:05;21.50;90.20
4908;DHT22;64375;51.540;7.364;2022-10-16T12:57:48;21.40;90.40
4908;DHT22;64375;51.540;7.364;2022-10-16T13:00:25;21.40;90.30
4908;DHT22;64375;51.540;7.364;2022-10-16T13:03:20;21.40;90.10
4908;DHT22;64375;51.540;7.364;2022-10-16T13:06:01;21.40;90.10
4908;DHT22;64375;51.540;7.364;2022-10-16T13:08:45;21.40;90.50
4908;DHT22;64375;51.540;7.364;2022-10-16T13:11:23;21.50;90.50
4908;DHT22;64375;51.540;7.364;2022-10-16T13:14:03;21.60;90.50
4908;DHT22;64375;51.540;7.364;2022-10-16T13:16:43;21.60;90.50
4908;DHT22;64375;51.540;7.364;2022-10-16T13:19:23;21.60;90.70
4908;DHT22;64375;51.540;7.364;2022-10-16T13:21:59;21.70;90.70
4908;DHT22;64375;51.540;7.364;2022-10-16T13:24:42;21.80;90.60
4908;DHT22;64375;51.540;7.364;2022-10-16T13:27:21;21.80;90.60
4908;DHT22;64375;51.540;7.364;2022-10-16T13:30:01;21.80;90.40
4908;DHT22;64375;51.540;7.364;2022-10-16T13:32:30;21.90;90.30
4908;DHT22;64375;51.540;7.364;2022-10-16T13:34:58;21.90;89.70
4908;DHT22;64375;51.540;7.364;2022-10-16T13:37:27;21.80;89.70
4908;DHT22;64375;51.540;7.364;2022-10-16T13:40:12;21.80;89.80
4908;DHT22;64375;51.540;7.364;2022-10-16T13:42:45;21.90;89.70
4908;DHT22;64375;51.540;7.364;2022-10-16T13:45:20;21.90;89.60
4908;DHT22;64375;51.540;7.364;2022-10-16T13:47:48;21.90;89.00
4908;DHT22;64375;51.540;7.364;2022-10-16T13:50:17;21.90;88.90
4908;DHT22;64375;51.540;7.364;2022-10-16T13:52:45;21.80;88.30
4908;DHT22;64375;51.540;7.364;2022-10-16T13:55:17;21.80;88.90
4908;DHT22;64375;51.540;7.364;2022-10-16T13:57:45;21.80;88.80
4908;DHT22;64375;51.540;7.364;2022-10-16T14:00:22;21.90;88.40
4908;DHT22;64375;51.540;7.364;2022-10-16T14:02:54;21.90;88.40
4908;DHT22;64375;51.540;7.364;2022-10-16T14:05:24;21.90;87.90
4908;DHT22;64375;51.540;7.364;2022-10-16T14:07:53;21.90;88.10
4908;DHT22;64375;51.540;7.364;2022-10-16T14:10:25;21.90;88.20
4908;DHT22;64375;51.540;7.364;2022-10-16T14:12:56;21.90;88.30
4908;DHT22;64375;51.540;7.364;2022-10-16T14:15:24;21.90;88.30
4908;DHT22;64375;51.540;7.364;2022-10-16T14:17:53;21.90;88.60
4908;DHT22;64375;51.540;7.364;2022-10-16T14:20:25;21.90;88.90
4908;DHT22;64375;51.540;7.364;2022-10-16T14:23:01;21.90;89.30
4908;DHT22;64375;51.540;7.364;2022-10-16T14:25:32;21.70;89.40
4908;DHT22;64375;51.540;7.364;2022-10-16T14:28:02;21.80;89.70
4908;DHT22;64375;51.540;7.364;2022-10-16T14:30:32;21.90;89.30
4908;DHT22;64375;51.540;7.364;2022-10-16T14:33:02;21.90;89.00
4908;DHT22;64375;51.540;7.364;2022-10-16T14:35:32;22.00;88.70
4908;DHT22;64375;51.540;7.364;2022-10-16T14:38:02;22.00;88.70
4908;DHT22;64375;51.540;7.364;2022-10-16T14:40:33;22.00;89.00
4908;DHT22;64375;51.540;7.364;2022-10-16T14:43:02;22.00;89.70
4908;DHT22;64375;51.540;7.364;2022-10-16T14:45:32;22.00;90.00
4908;DHT22;64375;51.540;7.364;2022-10-16T14:48:03;22.00;90.00
4908;DHT22;64375;51.540;7.364;2022-10-16T14:50:33;22.00;91.00
4908;DHT22;64375;51.540;7.364;2022-10-16T14:53:00;21.90;91.30
4908;DHT22;64375;51.540;7.364;2022-10-16T14:55:29;21.70;91.40
4908;DHT22;64375;51.540;7.364;2022-10-16T14:57:58;21.50;91.40
4908;DHT22;64375;51.540;7.364;2022-10-16T15:00:27;21.40;91.80
4908;DHT22;64375;51.540;7.364;2022-10-16T15:02:55;21.30;92.10
4908;DHT22;64375;51.540;7.364;2022-10-16T15:05:24;21.30;92.40
4908;DHT22;64375;51.540;7.364;2022-10-16T15:07:54;21.30;92.50
4908;DHT22;64375;51.540;7.364;2022-10-16T15:10:23;21.40;92.60
4908;DHT22;64375;51.540;7.364;2022-10-16T15:12:52;21.40;92.60
4908;DHT22;64375;51.540;7.364;2022-10-16T15:15:35;21.50;92.70
4908;DHT22;64375;51.540;7.364;2022-10-16T15:18:04;21.40;92.50
4908;DHT22;64375;51.540;7.364;2022-10-16T15:20:34;21.40;92.90
4908;DHT22;64375;51.540;7.364;2022-10-16T15:23:04;21.20;92.30
4908;DHT22;64375;51.540;7.364;2022-10-16T15:25:37;21.20;93.00
4908;DHT22;64375;51.540;7.364;2022-10-16T15:28:07;21.30;93.30
4908;DHT22;64375;51.540;7.364;2022-10-16T15:30:37;21.30;93.20
4908;DHT22;64375;51.540;7.364;2022-10-16T15:33:11;21.30;93.30
4908;DHT22;64375;51.540;7.364;2022-10-16T15:35:40;21.30;93.40
4908;DHT22;64375;51.540;7.364;2022-10-16T15:38:10;21.30;93.20
4908;DHT22;64375;51.540;7.364;2022-10-16T15:40:39;21.20;93.40
4908;DHT22;64375;51.540;7.364;2022-10-16T15:43:07;21.30;93.60
4908;DHT22;64375;51.540;7.364;2022-10-16T15:45:36;21.30;93.70
4908;DHT22;64375;51.540;7.364;2022-10-16T15:48:04;21.30;93.70
4908;DHT22;64375;51.540;7.364;2022-10-16T15:50:33;21.40;93.90
4908;DHT22;64375;51.540;7.364;2022-10-16T15:53:01;21.30;93.90
4908;DHT22;64375;51.540;7.364;2022-10-16T15:55:29;21.30;93.60
4908;DHT22;64375;51.540;7.364;2022-10-16T15:57:57;21.30;93.80
4908;DHT22;64375;51.540;7.364;2022-10-16T16:00:25;21.30;93.70
4908;DHT22;64375;51.540;7.364;2022-10-16T16:02:54;21.20;93.80
4908;DHT22;64375;51.540;7.364;2022-10-16T16:05:22;21.30;94.10
4908;DHT22;64375;51.540;7.364;2022-10-16T16:07:50;21.30;94.00
4908;DHT22;64375;51.540;7.364;2022-10-16T16:10:19;21.30;94.10
4908;DHT22;64375;51.540;7.364;2022-10-16T16:12:48;21.30;94.20
4908;DHT22;64375;51.540;7.364;2022-10-16T16:15:19;21.30;94.20
4908;DHT22;64375;51.540;7.364;2022-10-16T16:17:47;21.40;94.20